sensor_id;sensor_type;location;lat;lon;timestamp;pressure;altitude;pressure_sealevel;temperature;humidity
70930;BME280;58588;48.102;19.682;2023-10-31T00:01:06;98649.44;;;14.61;100.00
70930;BME280;58588;48.102;19.682;2023-10-31T00:04:10;98664.19;;;14.53;100.00
70930;BME280;58588;48.102;19.682;2023-10-31T00:07:12;98665.69;;;14.49;100.00
70930;BME280;58588;48.102;19.682;2023-10-31T00:10:14;98650.97;;;14.27;100.00
70930;BME280;58588;48.102;19.682;2023-10-31T00:13:15;98649.88;;;14.16;100.00
70930;BME280;58588;48.102;19.682;2023-10-31T00:16:17;98646.00;;;14.24;100.00
70930;BME280;58588;48.102;19.682;2023-10-31T00:19:20;98644.47;;;14.16;100.00
70930;BME280;58588;48.102;19.682;2023-10-31T00:22:23;98645.03;;;13.88;100.00
70930;BME280;58588;48.102;19.682;2023-10-31T00:25:25;98631.88;;;13.91;100.00
70930;BME280;58588;48.102;19.682;2023-10-31T00:28:27;98625.09;;;13.82;100.00
70930;BME280;58588;48.102;19.682;2023-10-31T00:31:29;98610.59;;;13.77;100.00
70930;BME280;58588;48.102;19.682;2023-10-31T00:34:32;98600.84;;;13.39;100.00
70930;BME280;58588;48.102;19.682;2023-10-31T00:37:34;98605.50;;;13.50;100.00
70930;BME280;58588;48.102;19.682;2023-10-31T00:40:36;98605.78;;;13.60;100.00
70930;BME280;58588;48.102;19.682;2023-10-31T00:43:38;98591.06;;;13.38;100.00
70930;BME280;58588;48.102;19.682;2023-10-31T00:46:40;98592.50;;;13.41;100.00
70930;BME280;58588;48.102;19.682;2023-10-31T00:49:43;98589.25;;;13.69;100.00
70930;BME280;58588;48.102;19.682;2023-10-31T00:52:45;98595.09;;;13.65;100.00
70930;BME280;58588;48.102;19.682;2023-10-31T00:55:47;98588.56;;;13.55;100.00
70930;BME280;58588;48.102;19.682;2023-10-31T00:58:48;98578.25;;;13.63;100.00
70930;BME280;58588;48.102;19.682;2023-10-31T01:01:50;98575.69;;;13.99;100.00
70930;BME280;58588;48.102;19.682;2023-10-31T01:04:54;98550.41;;;13.75;100.00
70930;BME280;58588;48.102;19.682;2023-10-31T01:07:56;98560.72;;;13.66;100.00
70930;BME280;58588;48.102;19.682;2023-10-31T01:10:57;98543.28;;;13.62;100.00
70930;BME280;58588;48.102;19.682;2023-10-31T01:13:59;98543.72;;;13.59;100.00
70930;BME280;58588;48.102;19.682;2023-10-31T01:17:01;98539.09;;;13.78;100.00
70930;BME280;58588;48.102;19.682;2023-10-31T01:20:06;98533.22;;;13.81;100.00
70930;BME280;58588;48.102;19.682;2023-10-31T01:23:08;98535.81;;;13.76;100.00
70930;BME280;58588;48.102;19.682;2023-10-31T01:26:10;98528.97;;;13.55;100.00
70930;BME280;58588;48.102;19.682;2023-10-31T01:29:12;98530.09;;;13.65;100.00
70930;BME280;58588;48.102;19.682;2023-10-31T01:32:14;98525.97;;;13.33;100.00
70930;BME280;58588;48.102;19.682;2023-10-31T01:35:17;98510.03;;;13.55;100.00
70930;BME280;58588;48.102;19.682;2023-10-31T01:38:19;98512.13;;;13.23;100.00
70930;BME280;58588;48.102;19.682;2023-10-31T01:41:21;98499.84;;;13.20;100.00
70930;BME280;58588;48.102;19.682;2023-10-31T01:44:22;98485.56;;;13.50;100.00
70930;BME280;58588;48.102;19.682;2023-10-31T01:47:24;98496.78;;;13.35;100.00
70930;BME280;58588;48.102;19.682;2023-10-31T01:50:28;98493.00;;;13.18;100.00
70930;BME280;58588;48.102;19.682;2023-10-31T01:53:31;98498.78;;;13.39;100.00
70930;BME280;58588;48.102;19.682;2023-10-31T01:56:33;98493.72;;;13.31;100.00
70930;BME280;58588;48.102;19.682;2023-10-31T01:59:35;98489.47;;;13.35;100.00
70930;BME280;58588;48.102;19.682;2023-10-31T02:02:40;98491.22;;;13.30;100.00
70930;BME280;58588;48.102;19.682;2023-10-31T02:05:45;98487.66;;;13.11;100.00
70930;BME280;58588;48.102;19.682;2023-10-31T02:08:47;98490.63;;;13.28;100.00
70930;BME280;58588;48.102;19.682;2023-10-31T02:11:49;98482.59;;;12.84;100.00
70930;BME280;58588;48.102;19.682;2023-10-31T02:14:51;98478.75;;;12.92;100.00
70930;BME280;58588;48.102;19.682;2023-10-31T02:17:53;98480.91;;;12.65;100.00
70930;BME280;58588;48.102;19.682;2023-10-31T02:20:56;98479.50;;;12.81;100.00
70930;BME280;58588;48.102;19.682;2023-10-31T02:24:00;98482.03;;;12.94;100.00
70930;BME280;58588;48.102;19.682;2023-10-31T02:27:02;98469.88;;;13.03;100.00
70930;BME280;58588;48.102;19.682;2023-10-31T02:30:05;98474.97;;;12.93;100.00
70930;BME280;58588;48.102;19.682;2023-10-31T02:33:07;98472.72;;;13.08;100.00
70930;BME280;58588;48.102;19.682;2023-10-31T02:36:09;98472.72;;;13.27;100.00
70930;BME280;58588;48.102;19.682;2023-10-31T02:39:13;98462.81;;;13.21;100.00
70930;BME280;58588;48.102;19.682;2023-10-31T02:42:14;98456.03;;;13.11;100.00
70930;BME280;58588;48.102;19.682;2023-10-31T02:45:16;98447.56;;;12.90;100.00
70930;BME280;58588;48.102;19.682;2023-10-31T02:48:19;98444.66;;;12.73;100.00
70930;BME280;58588;48.102;19.682;2023-10-31T02:51:24;98442.19;;;13.01;100.00
70930;BME280;58588;48.102;19.682;2023-10-31T02:54:27;98457.84;;;12.63;100.00
70930;BME280;58588;48.102;19.682;2023-10-31T02:57:29;98446.66;;;12.59;100.00
70930;BME280;58588;48.102;19.682;2023-10-31T03:00:31;98462.81;;;12.66;100.00
70930;BME280;58588;48.102;19.682;2023-10-31T03:03:33;98442.84;;;12.48;100.00
70930;BME280;58588;48.102;19.682;2023-10-31T03:06:35;98443.75;;;12.61;100.00
70930;BME280;58588;48.102;19.682;2023-10-31T03:09:38;98448.16;;;12.92;100.00
70930;BME280;58588;48.102;19.682;2023-10-31T03:12:40;98427.94;;;12.94;100.00
70930;BME280;58588;48.102;19.682;2023-10-31T03:15:42;98434.63;;;12.92;100.00
70930;BME280;58588;48.102;19.682;2023-10-31T03:18:44;98431.16;;;13.21;100.00
70930;BME280;58588;48.102;19.682;2023-10-31T03:21:46;98417.81;;;13.38;100.00
70930;BME280;58588;48.102;19.682;2023-10-31T03:24:49;98421.03;;;12.98;100.00
70930;BME280;58588;48.102;19.682;2023-10-31T03:27:51;98418.00;;;13.06;100.00
70930;BME280;58588;48.102;19.682;2023-10-31T03:30:53;98403.19;;;13.27;100.00
70930;BME280;58588;48.102;19.682;2023-10-31T03:33:55;98398.41;;;13.41;100.00
70930;BME280;58588;48.102;19.682;2023-10-31T03:36:56;98390.53;;;13.51;100.00
70930;BME280;58588;48.102;19.682;2023-10-31T03:40:00;98405.91;;;13.27;100.00
70930;BME280;58588;48.102;19.682;2023-10-31T03:43:02;98424.31;;;13.49;100.00
70930;BME280;58588;48.102;19.682;2023-10-31T03:46:04;98452.63;;;13.16;100.00
70930;BME280;58588;48.102;19.682;2023-10-31T03:49:06;98447.16;;;13.23;100.00
70930;BME280;58588;48.102;19.682;2023-10-31T03:52:09;98450.75;;;13.35;100.00
70930;BME280;58588;48.102;19.682;2023-10-31T03:55:12;98445.88;;;13.55;100.00
70930;BME280;58588;48.102;19.682;2023-10-31T03:58:14;98455.72;;;13.80;100.00
70930;BME280;58588;48.102;19.682;2023-10-31T04:01:16;98450.00;;;14.00;100.00
70930;BME280;58588;48.102;19.682;2023-10-31T04:04:18;98450.66;;;13.83;100.00
70930;BME280;58588;48.102;19.682;2023-10-31T04:07:20;98455.59;;;13.75;100.00
70930;BME280;58588;48.102;19.682;2023-10-31T04:10:23;98455.16;;;14.01;100.00
70930;BME280;58588;48.102;19.682;2023-10-31T04:13:25;98452.31;;;13.96;100.00
70930;BME280;58588;48.102;19.682;2023-10-31T04:16:27;98462.09;;;13.97;100.00
70930;BME280;58588;48.102;19.682;2023-10-31T04:19:29;98472.22;;;13.90;100.00
70930;BME280;58588;48.102;19.682;2023-10-31T04:22:31;98474.72;;;13.50;100.00
70930;BME280;58588;48.102;19.682;2023-10-31T04:25:34;98479.38;;;13.43;100.00
70930;BME280;58588;48.102;19.682;2023-10-31T04:28:36;98484.09;;;13.47;100.00
70930;BME280;58588;48.102;19.682;2023-10-31T04:31:38;98474.06;;;13.78;100.00
70930;BME280;58588;48.102;19.682;2023-10-31T04:34:40;98481.91;;;13.98;100.00
70930;BME280;58588;48.102;19.682;2023-10-31T04:37:41;98473.94;;;13.73;100.00
70930;BME280;58588;48.102;19.682;2023-10-31T04:40:45;98473.47;;;14.17;100.00
70930;BME280;58588;48.102;19.682;2023-10-31T04:43:47;98465.41;;;13.87;100.00
70930;BME280;58588;48.102;19.682;2023-10-31T04:46:49;98459.06;;;14.05;100.00
70930;BME280;58588;48.102;19.682;2023-10-31T04:49:50;98450.00;;;14.11;100.00
70930;BME280;58588;48.102;19.682;2023-10-31T04:52:52;98434.91;;;14.04;100.00
70930;BME280;58588;48.102;19.682;2023-10-31T04:55:56;98418.75;;;14.20;100.00
70930;BME280;58588;48.102;19.682;2023-10-31T04:58:58;98411.81;;;14.25;100.00
70930;BME280;58588;48.102;19.682;2023-10-31T05:01:59;98388.84;;;14.04;100.00
70930;BME280;58588;48.102;19.682;2023-10-31T05:05:01;98393.75;;;13.83;100.00
70930;BME280;58588;48.102;19.682;2023-10-31T05:08:03;98383.88;;;13.89;100.00
70930;BME280;58588;48.102;19.682;2023-10-31T05:11:07;98362.22;;;13.89;100.00
70930;BME280;58588;48.102;19.682;2023-10-31T05:14:09;98364.78;;;14.07;100.00
70930;BME280;58588;48.102;19.682;2023-10-31T05:17:11;98366.34;;;13.91;100.00
70930;BME280;58588;48.102;19.682;2023-10-31T05:20:13;98376.13;;;14.04;100.00
70930;BME280;58588;48.102;19.682;2023-10-31T05:23:15;98375.75;;;13.89;100.00
70930;BME280;58588;48.102;19.682;2023-10-31T05:26:18;98368.94;;;14.10;100.00
70930;BME280;58588;48.102;19.682;2023-10-31T05:29:20;98359.97;;;14.09;100.00
70930;BME280;58588;48.102;19.682;2023-10-31T05:32:22;98351.63;;;14.11;100.00
70930;BME280;58588;48.102;19.682;2023-10-31T05:35:24;98369.81;;;14.39;100.00
70930;BME280;58588;48.102;19.682;2023-10-31T05:38:26;98372.31;;;14.64;100.00
70930;BME280;58588;48.102;19.682;2023-10-31T05:41:30;98361.50;;;14.52;100.00
70930;BME280;58588;48.102;19.682;2023-10-31T05:44:32;98358.41;;;14.49;100.00
70930;BME280;58588;48.102;19.682;2023-10-31T05:47:34;98360.00;;;14.73;100.00
70930;BME280;58588;48.102;19.682;2023-10-31T05:50:36;98371.72;;;14.62;100.00
70930;BME280;58588;48.102;19.682;2023-10-31T05:53:39;98374.75;;;14.77;100.00
70930;BME280;58588;48.102;19.682;2023-10-31T05:56:42;98383.69;;;14.89;100.00
70930;BME280;58588;48.102;19.682;2023-10-31T05:59:45;98380.16;;;14.77;100.00
70930;BME280;58588;48.102;19.682;2023-10-31T06:02:47;98398.06;;;14.90;100.00
70930;BME280;58588;48.102;19.682;2023-10-31T06:05:49;98431.31;;;14.97;100.00
70930;BME280;58588;48.102;19.682;2023-10-31T06:08:50;98462.81;;;14.98;100.00
70930;BME280;58588;48.102;19.682;2023-10-31T06:11:54;98478.38;;;15.03;100.00
70930;BME280;58588;48.102;19.682;2023-10-31T06:14:56;98474.50;;;14.98;100.00
70930;BME280;58588;48.102;19.682;2023-10-31T06:17:58;98492.22;;;14.89;100.00
70930;BME280;58588;48.102;19.682;2023-10-31T06:21:00;98494.09;;;15.01;100.00
70930;BME280;58588;48.102;19.682;2023-10-31T06:24:02;98494.56;;;14.86;100.00
70930;BME280;58588;48.102;19.682;2023-10-31T06:27:05;98492.81;;;14.80;100.00
70930;BME280;58588;48.102;19.682;2023-10-31T06:30:08;98474.34;;;15.05;100.00
70930;BME280;58588;48.102;19.682;2023-10-31T06:33:10;98473.78;;;15.03;100.00
70930;BME280;58588;48.102;19.682;2023-10-31T06:36:12;98452.91;;;15.32;100.00
70930;BME280;58588;48.102;19.682;2023-10-31T06:39:14;98440.94;;;14.41;100.00
70930;BME280;58588;48.102;19.682;2023-10-31T06:42:17;98419.03;;;14.54;100.00
70930;BME280;58588;48.102;19.682;2023-10-31T06:45:19;98425.34;;;14.83;100.00
70930;BME280;58588;48.102;19.682;2023-10-31T06:48:21;98441.59;;;14.95;100.00
70930;BME280;58588;48.102;19.682;2023-10-31T06:51:23;98428.41;;;14.75;100.00
70930;BME280;58588;48.102;19.682;2023-10-31T06:54:25;98420.50;;;14.85;100.00
70930;BME280;58588;48.102;19.682;2023-10-31T06:57:28;98412.16;;;15.04;100.00
70930;BME280;58588;48.102;19.682;2023-10-31T07:00:30;98401.03;;;15.17;100.00
70930;BME280;58588;48.102;19.682;2023-10-31T07:03:32;98396.81;;;15.66;100.00
70930;BME280;58588;48.102;19.682;2023-10-31T07:06:34;98378.19;;;15.75;100.00
70930;BME280;58588;48.102;19.682;2023-10-31T07:09:36;98390.06;;;15.86;100.00
70930;BME280;58588;48.102;19.682;2023-10-31T07:12:39;98374.91;;;15.90;100.00
70930;BME280;58588;48.102;19.682;2023-10-31T07:15:41;98384.44;;;15.75;100.00
70930;BME280;58588;48.102;19.682;2023-10-31T07:18:43;98383.75;;;16.19;100.00
70930;BME280;58588;48.102;19.682;2023-10-31T07:21:45;98379.66;;;15.99;100.00
70930;BME280;58588;48.102;19.682;2023-10-31T07:24:47;98365.16;;;15.77;100.00
70930;BME280;58588;48.102;19.682;2023-10-31T07:27:50;98368.31;;;16.02;100.00
70930;BME280;58588;48.102;19.682;2023-10-31T07:30:52;98373.97;;;16.01;100.00
70930;BME280;58588;48.102;19.682;2023-10-31T07:33:54;98366.16;;;16.43;100.00
70930;BME280;58588;48.102;19.682;2023-10-31T07:36:56;98353.00;;;16.35;100.00
70930;BME280;58588;48.102;19.682;2023-10-31T07:39:58;98340.81;;;16.38;100.00
70930;BME280;58588;48.102;19.682;2023-10-31T07:43:02;98343.28;;;16.22;100.00
70930;BME280;58588;48.102;19.682;2023-10-31T07:46:04;98331.94;;;16.47;100.00
70930;BME280;58588;48.102;19.682;2023-10-31T07:49:06;98343.53;;;16.81;100.00
70930;BME280;58588;48.102;19.682;2023-10-31T07:52:08;98340.31;;;16.84;100.00
70930;BME280;58588;48.102;19.682;2023-10-31T07:55:10;98342.84;;;17.18;100.00
70930;BME280;58588;48.102;19.682;2023-10-31T07:58:13;98345.69;;;17.28;100.00
70930;BME280;58588;48.102;19.682;2023-10-31T08:01:16;98338.69;;;17.10;100.00
70930;BME280;58588;48.102;19.682;2023-10-31T08:04:18;98337.63;;;17.44;100.00
70930;BME280;58588;48.102;19.682;2023-10-31T08:07:20;98337.13;;;17.47;100.00
70930;BME280;58588;48.102;19.682;2023-10-31T08:10:23;98342.47;;;17.63;100.00
70930;BME280;58588;48.102;19.682;2023-10-31T08:13:27;98338.06;;;17.62;100.00
70930;BME280;58588;48.102;19.682;2023-10-31T08:16:29;98321.41;;;17.91;100.00
70930;BME280;58588;48.102;19.682;2023-10-31T08:19:31;98334.78;;;17.87;100.00
70930;BME280;58588;48.102;19.682;2023-10-31T08:22:33;98331.84;;;17.67;100.00
70930;BME280;58588;48.102;19.682;2023-10-31T08:25:34;98330.75;;;17.68;100.00
70930;BME280;58588;48.102;19.682;2023-10-31T08:28:38;98334.56;;;17.99;100.00
70930;BME280;58588;48.102;19.682;2023-10-31T08:31:40;98332.88;;;17.61;100.00
70930;BME280;58588;48.102;19.682;2023-10-31T08:34:42;98344.03;;;17.27;100.00
70930;BME280;58588;48.102;19.682;2023-10-31T08:37:44;98344.16;;;17.70;100.00
70930;BME280;58588;48.102;19.682;2023-10-31T08:40:46;98345.38;;;17.84;100.00
70930;BME280;58588;48.102;19.682;2023-10-31T08:43:55;98353.88;;;17.87;100.00
70930;BME280;58588;48.102;19.682;2023-10-31T08:46:58;98356.91;;;17.96;100.00
70930;BME280;58588;48.102;19.682;2023-10-31T08:50:00;98362.00;;;17.55;100.00
70930;BME280;58588;48.102;19.682;2023-10-31T08:53:02;98360.81;;;17.73;100.00
70930;BME280;58588;48.102;19.682;2023-10-31T08:56:05;98355.06;;;17.70;100.00
70930;BME280;58588;48.102;19.682;2023-10-31T08:59:09;98360.19;;;17.66;100.00
70930;BME280;58588;48.102;19.682;2023-10-31T09:02:11;98360.00;;;17.73;100.00
70930;BME280;58588;48.102;19.682;2023-10-31T09:05:12;98349.63;;;18.07;100.00
70930;BME280;58588;48.102;19.682;2023-10-31T09:08:14;98350.44;;;18.07;100.00
70930;BME280;58588;48.102;19.682;2023-10-31T09:11:16;98349.31;;;18.03;100.00
70930;BME280;58588;48.102;19.682;2023-10-31T09:14:19;98341.44;;;18.07;100.00
70930;BME280;58588;48.102;19.682;2023-10-31T09:17:21;98343.47;;;18.27;100.00
70930;BME280;58588;48.102;19.682;2023-10-31T09:20:23;98333.56;;;18.15;100.00
70930;BME280;58588;48.102;19.682;2023-10-31T09:23:25;98339.06;;;18.21;100.00
70930;BME280;58588;48.102;19.682;2023-10-31T09:26:27;98340.31;;;18.03;100.00
70930;BME280;58588;48.102;19.682;2023-10-31T09:29:30;98331.34;;;18.07;100.00
70930;BME280;58588;48.102;19.682;2023-10-31T09:32:35;98326.75;;;18.13;100.00
70930;BME280;58588;48.102;19.682;2023-10-31T09:35:37;98309.59;;;18.17;100.00
70930;BME280;58588;48.102;19.682;2023-10-31T09:38:39;98310.34;;;18.08;100.00
70930;BME280;58588;48.102;19.682;2023-10-31T09:41:40;98292.97;;;18.19;100.00
70930;BME280;58588;48.102;19.682;2023-10-31T09:44:44;98288.84;;;18.74;100.00
70930;BME280;58588;48.102;19.682;2023-10-31T09:47:46;98279.63;;;19.01;100.00
70930;BME280;58588;48.102;19.682;2023-10-31T09:50:48;98264.88;;;19.12;100.00
70930;BME280;58588;48.102;19.682;2023-10-31T09:53:54;98277.47;;;19.53;100.00
70930;BME280;58588;48.102;19.682;2023-10-31T09:57:14;98287.59;;;19.94;100.00
70930;BME280;58588;48.102;19.682;2023-10-31T10:00:19;98281.03;;;19.90;100.00
70930;BME280;58588;48.102;19.682;2023-10-31T10:03:22;98268.97;;;19.91;100.00
70930;BME280;58588;48.102;19.682;2023-10-31T10:07:01;98263.50;;;19.96;100.00
70930;BME280;58588;48.102;19.682;2023-10-31T10:10:04;98253.72;;;19.34;100.00
70930;BME280;58588;48.102;19.682;2023-10-31T10:13:06;98248.53;;;19.32;100.00
70930;BME280;58588;48.102;19.682;2023-10-31T10:16:09;98245.50;;;19.18;100.00
70930;BME280;58588;48.102;19.682;2023-10-31T10:19:15;98236.75;;;18.91;100.00
70930;BME280;58588;48.102;19.682;2023-10-31T10:22:20;98237.03;;;19.61;100.00
70930;BME280;58588;48.102;19.682;2023-10-31T10:25:22;98239.75;;;19.71;100.00
70930;BME280;58588;48.102;19.682;2023-10-31T10:28:24;98240.03;;;19.69;100.00
70930;BME280;58588;48.102;19.682;2023-10-31T10:31:27;98243.84;;;19.78;100.00
70930;BME280;58588;48.102;19.682;2023-10-31T10:34:31;98229.38;;;19.58;100.00
70930;BME280;58588;48.102;19.682;2023-10-31T10:37:37;98230.44;;;19.82;100.00
70930;BME280;58588;48.102;19.682;2023-10-31T10:40:41;98223.03;;;19.93;99.54
70930;BME280;58588;48.102;19.682;2023-10-31T10:43:44;98217.34;;;19.74;98.72
70930;BME280;58588;48.102;19.682;2023-10-31T10:46:50;98211.34;;;19.51;99.31
70930;BME280;58588;48.102;19.682;2023-10-31T10:49:58;98206.66;;;19.83;99.42
70930;BME280;58588;48.102;19.682;2023-10-31T10:53:09;98192.19;;;19.57;100.00
70930;BME280;58588;48.102;19.682;2023-10-31T10:56:16;98191.94;;;19.38;100.00
70930;BME280;58588;48.102;19.682;2023-10-31T10:59:20;98199.31;;;19.17;100.00
70930;BME280;58588;48.102;19.682;2023-10-31T11:02:25;98175.28;;;18.98;100.00
70930;BME280;58588;48.102;19.682;2023-10-31T11:05:27;98151.53;;;18.84;100.00
70930;BME280;58588;48.102;19.682;2023-10-31T11:08:31;98153.69;;;18.82;100.00
70930;BME280;58588;48.102;19.682;2023-10-31T11:11:33;98139.50;;;18.80;100.00
70930;BME280;58588;48.102;19.682;2023-10-31T11:14:36;98127.47;;;18.76;100.00
70930;BME280;58588;48.102;19.682;2023-10-31T11:17:42;98111.38;;;18.69;100.00
70930;BME280;58588;48.102;19.682;2023-10-31T11:20:44;98115.19;;;18.98;100.00
70930;BME280;58588;48.102;19.682;2023-10-31T11:23:56;98099.84;;;19.28;98.48
70930;BME280;58588;48.102;19.682;2023-10-31T11:27:00;98090.75;;;19.73;92.86
70930;BME280;58588;48.102;19.682;2023-10-31T11:30:05;98091.16;;;19.96;92.63
70930;BME280;58588;48.102;19.682;2023-10-31T11:33:13;98064.38;;;20.37;88.70
70930;BME280;58588;48.102;19.682;2023-10-31T11:36:15;98068.91;;;20.13;88.48
70930;BME280;58588;48.102;19.682;2023-10-31T11:39:19;98053.06;;;20.10;94.65
70930;BME280;58588;48.102;19.682;2023-10-31T11:42:22;98048.78;;;19.93;96.20
70930;BME280;58588;48.102;19.682;2023-10-31T11:45:28;98052.72;;;19.67;99.06
70930;BME280;58588;48.102;19.682;2023-10-31T11:51:58;98027.88;;;19.68;100.00
70930;BME280;58588;48.102;19.682;2023-10-31T11:55:02;98017.53;;;20.04;97.26
70930;BME280;58588;48.102;19.682;2023-10-31T11:58:15;97999.25;;;20.34;96.54
70930;BME280;58588;48.102;19.682;2023-10-31T12:01:17;98021.88;;;19.61;99.31
70930;BME280;58588;48.102;19.682;2023-10-31T12:04:22;98018.72;;;19.23;100.00
70930;BME280;58588;48.102;19.682;2023-10-31T12:07:26;98017.84;;;19.43;100.00
70930;BME280;58588;48.102;19.682;2023-10-31T12:10:29;98003.56;;;19.51;100.00
70930;BME280;58588;48.102;19.682;2023-10-31T12:13:31;97994.94;;;19.84;100.00
70930;BME280;58588;48.102;19.682;2023-10-31T12:16:34;97976.03;;;19.92;99.70
70930;BME280;58588;48.102;19.682;2023-10-31T12:19:36;97992.63;;;19.62;100.00
70930;BME280;58588;48.102;19.682;2023-10-31T12:22:39;97989.91;;;19.51;100.00
70930;BME280;58588;48.102;19.682;2023-10-31T12:28:48;98051.00;;;19.06;100.00
70930;BME280;58588;48.102;19.682;2023-10-31T12:31:50;98061.94;;;18.60;100.00
70930;BME280;58588;48.102;19.682;2023-10-31T12:34:53;98062.19;;;18.18;100.00
70930;BME280;58588;48.102;19.682;2023-10-31T12:37:56;98038.38;;;17.78;100.00
70930;BME280;58588;48.102;19.682;2023-10-31T12:40:58;97998.97;;;17.43;100.00
70930;BME280;58588;48.102;19.682;2023-10-31T12:44:01;97985.78;;;17.09;100.00
70930;BME280;58588;48.102;19.682;2023-10-31T12:47:07;97946.41;;;17.43;100.00
70930;BME280;58588;48.102;19.682;2023-10-31T12:50:11;97974.75;;;17.47;100.00
70930;BME280;58588;48.102;19.682;2023-10-31T12:53:23;98049.84;;;17.22;100.00
70930;BME280;58588;48.102;19.682;2023-10-31T12:56:35;98056.56;;;16.72;100.00
70930;BME280;58588;48.102;19.682;2023-10-31T12:59:39;98074.25;;;16.11;100.00
70930;BME280;58588;48.102;19.682;2023-10-31T13:02:42;98104.75;;;15.91;100.00
70930;BME280;58588;48.102;19.682;2023-10-31T13:05:44;98154.63;;;15.79;100.00
70930;BME280;58588;48.102;19.682;2023-10-31T13:08:48;98168.41;;;15.73;100.00
70930;BME280;58588;48.102;19.682;2023-10-31T13:11:50;98311.28;;;15.40;100.00
70930;BME280;58588;48.102;19.682;2023-10-31T13:14:51;98374.06;;;23.00;100.00
70930;BME280;58588;48.102;19.682;2023-10-31T13:17:53;98353.91;;;20.76;100.00
70930;BME280;58588;48.102;19.682;2023-10-31T13:20:56;98296.38;;;19.60;100.00
70930;BME280;58588;48.102;19.682;2023-10-31T13:23:59;98247.09;;;20.71;100.00
70930;BME280;58588;48.102;19.682;2023-10-31T13:27:01;98226.66;;;19.32;100.00
70930;BME280;58588;48.102;19.682;2023-10-31T13:30:05;98226.09;;;19.40;100.00
70930;BME280;58588;48.102;19.682;2023-10-31T13:33:08;98227.16;;;19.55;100.00
70930;BME280;58588;48.102;19.682;2023-10-31T13:36:10;98184.28;;;19.35;100.00
70930;BME280;58588;48.102;19.682;2023-10-31T13:39:13;98157.50;;;19.37;100.00
70930;BME280;58588;48.102;19.682;2023-10-31T13:42:15;98155.34;;;18.98;100.00
70930;BME280;58588;48.102;19.682;2023-10-31T13:45:17;98119.84;;;19.08;100.00
70930;BME280;58588;48.102;19.682;2023-10-31T13:48:19;98132.94;;;19.16;100.00
70930;BME280;58588;48.102;19.682;2023-10-31T13:51:21;98156.16;;;19.24;100.00
70930;BME280;58588;48.102;19.682;2023-10-31T13:54:25;98193.56;;;18.83;100.00
70930;BME280;58588;48.102;19.682;2023-10-31T13:57:27;98197.66;;;18.80;100.00
70930;BME280;58588;48.102;19.682;2023-10-31T14:00:29;98197.94;;;19.24;100.00
70930;BME280;58588;48.102;19.682;2023-10-31T14:03:31;98201.22;;;19.42;100.00
70930;BME280;58588;48.102;19.682;2023-10-31T14:06:33;98188.09;;;19.49;100.00
70930;BME280;58588;48.102;19.682;2023-10-31T14:09:36;98214.09;;;19.62;100.00
70930;BME280;58588;48.102;19.682;2023-10-31T14:12:39;98228.28;;;19.23;100.00
70930;BME280;58588;48.102;19.682;2023-10-31T14:15:41;98235.38;;;19.75;100.00
70930;BME280;58588;48.102;19.682;2023-10-31T14:18:43;98235.69;;;19.73;100.00
70930;BME280;58588;48.102;19.682;2023-10-31T14:21:46;98208.34;;;19.63;100.00
70930;BME280;58588;48.102;19.682;2023-10-31T14:25:14;98140.59;;;19.14;100.00
70930;BME280;58588;48.102;19.682;2023-10-31T14:28:17;98165.16;;;19.45;100.00
70930;BME280;58588;48.102;19.682;2023-10-31T14:31:19;98143.25;;;19.70;100.00
70930;BME280;58588;48.102;19.682;2023-10-31T14:34:21;98161.59;;;19.39;100.00
70930;BME280;58588;48.102;19.682;2023-10-31T14:37:23;98153.44;;;18.83;100.00
70930;BME280;58588;48.102;19.682;2023-10-31T14:40:26;98156.72;;;19.11;100.00
70930;BME280;58588;48.102;19.682;2023-10-31T14:43:28;98177.44;;;18.76;100.00
70930;BME280;58588;48.102;19.682;2023-10-31T14:46:30;98168.72;;;18.99;100.00
70930;BME280;58588;48.102;19.682;2023-10-31T14:49:33;98165.16;;;18.74;100.00
70930;BME280;58588;48.102;19.682;2023-10-31T14:52:35;98168.13;;;18.57;100.00
70930;BME280;58588;48.102;19.682;2023-10-31T14:55:39;98158.47;;;18.18;100.00
70930;BME280;58588;48.102;19.682;2023-10-31T14:58:41;98133.69;;;18.40;100.00
70930;BME280;58588;48.102;19.682;2023-10-31T15:01:43;98125.03;;;18.84;100.00
70930;BME280;58588;48.102;19.682;2023-10-31T15:04:45;98107.84;;;18.79;100.00
70930;BME280;58588;48.102;19.682;2023-10-31T15:07:47;98058.38;;;18.39;100.00
70930;BME280;58588;48.102;19.682;2023-10-31T15:10:51;98025.66;;;18.24;100.00
70930;BME280;58588;48.102;19.682;2023-10-31T15:13:53;98020.66;;;17.75;100.00
70930;BME280;58588;48.102;19.682;2023-10-31T15:16:54;98029.56;;;17.60;100.00
70930;BME280;58588;48.102;19.682;2023-10-31T15:19:56;98044.69;;;17.94;100.00
70930;BME280;58588;48.102;19.682;2023-10-31T15:22:58;98073.09;;;18.13;100.00
70930;BME280;58588;48.102;19.682;2023-10-31T15:26:02;98064.91;;;18.23;100.00
70930;BME280;58588;48.102;19.682;2023-10-31T15:29:05;98088.13;;;18.41;100.00
70930;BME280;58588;48.102;19.682;2023-10-31T15:32:07;98113.00;;;18.60;100.00
70930;BME280;58588;48.102;19.682;2023-10-31T15:35:09;98104.00;;;18.80;100.00
70930;BME280;58588;48.102;19.682;2023-10-31T15:38:11;98088.97;;;18.87;100.00
70930;BME280;58588;48.102;19.682;2023-10-31T15:41:14;98099.31;;;18.65;100.00
70930;BME280;58588;48.102;19.682;2023-10-31T15:44:16;98115.22;;;18.68;100.00
70930;BME280;58588;48.102;19.682;2023-10-31T15:47:18;98127.47;;;18.76;100.00
70930;BME280;58588;48.102;19.682;2023-10-31T15:50:20;98145.53;;;18.71;100.00